Time;durP1;ratioP1;P1;durP2;ratioP2;P2;SDS_P1;SDS_P2;PMS_P1;PMS_P2;Temp;Humidity;BMP_temperature;BMP_pressure;BME280_temperature;BME280_humidity;BME280_pressure;Samples;Min_cycle;Max_cycle;Signal;HPM_P1;HPM_P2
2023/12/30 00:00:56;;;;;;;12.85;3.13;;;;;;;;;;4958258;29;20042;-51
2023/12/30 00:03:21;;;;;;;9.70;2.60;;;;;;;;;;4956814;29;20087;-57
2023/12/30 00:05:46;;;;;;;11.17;1.90;;;;;;;;;;4956058;29;20035;-54
2023/12/30 00:08:12;;;;;;;12.57;2.37;;;;;;;;;;4957545;29;20032;-55
2023/12/30 00:10:37;;;;;;;23.43;2.77;;;;;;;;;;4962135;29;20111;-54
2023/12/30 00:13:03;;;;;;;10.17;2.80;;;;;;;;;;4956794;29;20262;-55
2023/12/30 00:15:28;;;;;;;15.63;2.60;;;;;;;;;;4956742;29;20272;-52
2023/12/30 00:17:53;;;;;;;18.60;2.67;;;;;;;;;;4959079;29;20042;-55
2023/12/30 00:20:19;;;;;;;8.27;2.10;;;;;;;;;;4960295;29;20036;-56
2023/12/30 00:22:45;;;;;;;13.65;2.50;;;;;;;;;;4956566;29;20028;-53
2023/12/30 00:25:10;;;;;;;20.90;3.33;;;;;;;;;;4956665;29;20071;-57
2023/12/30 00:27:36;;;;;;;12.30;2.17;;;;;;;;;;4956352;29;20034;-57
2023/12/30 00:30:01;;;;;;;18.63;2.23;;;;;;;;;;4956615;29;20035;-56
2023/12/30 00:32:27;;;;;;;22.65;4.43;;;;;;;;;;4956663;29;20042;-57
2023/12/30 00:34:52;;;;;;;13.70;2.53;;;;;;;;;;4956572;29;20031;-55
2023/12/30 00:37:21;;;;;;;22.52;2.88;;;;;;;;;;4959086;29;20036;-55
2023/12/30 00:39:47;;;;;;;14.23;3.58;;;;;;;;;;4960673;29;20040;-56
2023/12/30 00:42:12;;;;;;;20.77;3.40;;;;;;;;;;4939960;29;20039;-54
2023/12/30 00:44:38;;;;;;;19.80;2.13;;;;;;;;;;4956561;29;20116;-53
2023/12/30 00:47:04;;;;;;;19.13;2.63;;;;;;;;;;4959238;29;20031;-55
2023/12/30 00:49:30;;;;;;;8.97;2.20;;;;;;;;;;4958417;29;20070;-54
2023/12/30 00:51:55;;;;;;;13.47;1.70;;;;;;;;;;4939732;29;20048;-56
2023/12/30 00:54:21;;;;;;;22.55;3.40;;;;;;;;;;4956167;29;20039;-56
2023/12/30 00:56:46;;;;;;;18.40;2.57;;;;;;;;;;4958627;29;20036;-57
2023/12/30 00:59:12;;;;;;;15.87;2.70;;;;;;;;;;4960074;29;20276;-53
2023/12/30 01:01:38;;;;;;;20.77;3.07;;;;;;;;;;4955656;29;20036;-54
2023/12/30 01:04:03;;;;;;;18.08;3.00;;;;;;;;;;4956603;29;20062;-55
2023/12/30 01:06:28;;;;;;;12.33;2.53;;;;;;;;;;4939816;29;20058;-54
2023/12/30 01:08:54;;;;;;;8.93;2.13;;;;;;;;;;4962664;29;20039;-56
2023/12/30 01:11:19;;;;;;;12.00;3.17;;;;;;;;;;4949101;29;20032;-52
2023/12/30 01:13:45;;;;;;;23.08;2.72;;;;;;;;;;4957660;29;20038;-53
2023/12/30 01:16:10;;;;;;;16.97;2.23;;;;;;;;;;4957640;29;20031;-53
2023/12/30 01:18:36;;;;;;;19.45;3.38;;;;;;;;;;4944981;29;20036;-55
2023/12/30 01:21:03;;;;;;;19.57;2.60;;;;;;;;;;4964561;29;20051;-55
2023/12/30 01:23:29;;;;;;;20.48;2.35;;;;;;;;;;4942776;29;20035;-56
2023/12/30 01:25:54;;;;;;;15.90;2.53;;;;;;;;;;4943172;29;20054;-56
2023/12/30 01:28:19;;;;;;;12.47;2.50;;;;;;;;;;4972997;29;20277;-52
2023/12/30 01:30:44;;;;;;;13.20;3.27;;;;;;;;;;4959506;29;20635;-54
2023/12/30 01:33:10;;;;;;;10.60;2.20;;;;;;;;;;4942698;29;20042;-53
2023/12/30 01:35:36;;;;;;;12.27;2.50;;;;;;;;;;4959496;29;20035;-56
2023/12/30 01:38:01;;;;;;;14.67;3.17;;;;;;;;;;4964433;29;20043;-53
2023/12/30 01:40:27;;;;;;;23.63;3.43;;;;;;;;;;4950554;29;20035;-54
2023/12/30 01:42:53;;;;;;;15.10;2.47;;;;;;;;;;4942549;29;20024;-54
2023/12/30 01:45:19;;;;;;;9.27;2.20;;;;;;;;;;4942539;29;20047;-56
2023/12/30 01:47:44;;;;;;;23.37;5.23;;;;;;;;;;4961771;29;20036;-55
2023/12/30 01:50:10;;;;;;;19.10;3.60;;;;;;;;;;4963096;29;20041;-51
2023/12/30 01:52:36;;;;;;;16.10;2.60;;;;;;;;;;4940291;29;20297;-54
2023/12/30 01:55:04;;;;;;;20.10;3.22;;;;;;;;;;4952183;29;20040;-53
2023/12/30 01:57:30;;;;;;;17.08;2.38;;;;;;;;;;4959289;29;20055;-56
2023/12/30 01:59:58;;;;;;;17.27;2.15;;;;;;;;;;4942149;29;20041;-54
2023/12/30 02:02:23;;;;;;;13.02;2.88;;;;;;;;;;4942135;29;20032;-53
2023/12/30 02:04:50;;;;;;;9.00;2.22;;;;;;;;;;4958971;29;20028;-53
2023/12/30 02:07:15;;;;;;;12.47;2.10;;;;;;;;;;4941350;29;20068;-56
2023/12/30 02:09:41;;;;;;;11.07;2.55;;;;;;;;;;4964376;29;20034;-52
2023/12/30 02:12:07;;;;;;;21.77;2.67;;;;;;;;;;4945319;29;20031;-54
2023/12/30 02:14:33;;;;;;;18.17;2.67;;;;;;;;;;4942475;29;20044;-55
2023/12/30 02:16:58;;;;;;;20.58;2.55;;;;;;;;;;4958821;29;20072;-53
2023/12/30 02:19:24;;;;;;;19.27;2.97;;;;;;;;;;4948901;29;20095;-52
2023/12/30 02:21:50;;;;;;;14.67;2.47;;;;;;;;;;4946082;29;20035;-54
2023/12/30 02:24:15;;;;;;;17.70;2.28;;;;;;;;;;4949931;29;20039;-51
2023/12/30 02:26:41;;;;;;;15.27;2.53;;;;;;;;;;4952701;29;20039;-56
2023/12/30 02:29:08;;;;;;;;;;;;;;;;;;4961399;29;20047;-56
2023/12/30 02:31:45;;;;;;;21.10;3.37;;;;;;;;;;4963551;29;19910;-52
2023/12/30 02:34:10;;;;;;;17.67;2.40;;;;;;;;;;4941378;29;20067;-53
2023/12/30 02:36:36;;;;;;;11.63;2.03;;;;;;;;;;4941578;29;20027;-53
2023/12/30 02:39:02;;;;;;;7.57;1.52;;;;;;;;;;4959826;29;20071;-54
2023/12/30 02:41:28;;;;;;;16.07;3.13;;;;;;;;;;4963561;29;20103;-55
2023/12/30 02:43:57;;;;;;;14.60;2.50;;;;;;;;;;4958988;29;20282;-52
2023/12/30 02:46:22;;;;;;;14.85;2.08;;;;;;;;;;4958194;29;20039;-54
2023/12/30 02:48:48;;;;;;;22.17;4.83;;;;;;;;;;4957761;29;20032;-53
2023/12/30 02:51:16;;;;;;;31.20;2.20;;;;;;;;;;4966164;29;20042;-55
2023/12/30 02:53:42;;;;;;;19.83;3.17;;;;;;;;;;4942098;29;20034;-54
2023/12/30 02:56:17;;;;;;;23.37;3.17;;;;;;;;;;4962245;29;20036;-55
2023/12/30 02:58:42;;;;;;;13.90;2.50;;;;;;;;;;4945835;29;20269;-55
2023/12/30 03:01:08;;;;;;;11.60;1.83;;;;;;;;;;4963490;29;20063;-52
2023/12/30 03:03:33;;;;;;;20.00;2.95;;;;;;;;;;4958167;29;20112;-51
2023/12/30 03:05:59;;;;;;;16.13;1.70;;;;;;;;;;4957396;29;20036;-53
2023/12/30 03:08:25;;;;;;;19.92;2.40;;;;;;;;;;4961299;29;20031;-55
2023/12/30 03:10:50;;;;;;;18.53;3.40;;;;;;;;;;4957187;29;20040;-54
2023/12/30 03:13:16;;;;;;;11.17;2.47;;;;;;;;;;4963607;29;20042;-53
2023/12/30 03:15:41;;;;;;;25.20;2.33;;;;;;;;;;4957715;29;20269;-56
2023/12/30 03:18:07;;;;;;;13.60;1.90;;;;;;;;;;4941751;29;20028;-51
2023/12/30 03:20:32;;;;;;;11.60;2.13;;;;;;;;;;4945404;29;20342;-51
2023/12/30 03:22:58;;;;;;;16.75;1.95;;;;;;;;;;4960300;29;20064;-53
2023/12/30 03:25:23;;;;;;;14.20;2.70;;;;;;;;;;4940876;29;20062;-53
2023/12/30 03:27:49;;;;;;;9.00;1.58;;;;;;;;;;4940751;29;20055;-56
2023/12/30 03:30:14;;;;;;;15.53;2.33;;;;;;;;;;4960968;29;20040;-53
2023/12/30 03:32:40;;;;;;;13.90;1.87;;;;;;;;;;4958020;29;20272;-53
2023/12/30 03:35:06;;;;;;;17.57;2.47;;;;;;;;;;4957301;29;20050;-56
2023/12/30 03:37:31;;;;;;;15.90;1.95;;;;;;;;;;4940351;29;20415;-54
2023/12/30 03:39:56;;;;;;;20.10;2.77;;;;;;;;;;4944718;29;20051;-53
2023/12/30 03:42:22;;;;;;;14.60;2.00;;;;;;;;;;4963092;29;20035;-55
2023/12/30 03:44:47;;;;;;;11.43;2.53;;;;;;;;;;4940539;29;20374;-53
2023/12/30 03:47:13;;;;;;;19.52;2.60;;;;;;;;;;4940489;29;20036;-55
2023/12/30 03:49:38;;;;;;;15.57;3.40;;;;;;;;;;4940831;29;20040;-54
2023/12/30 03:52:04;;;;;;;14.07;2.00;;;;;;;;;;4943921;29;20294;-55
2023/12/30 03:54:30;;;;;;;15.82;2.53;;;;;;;;;;4940516;29;20031;-54
2023/12/30 03:56:55;;;;;;;19.83;4.27;;;;;;;;;;4956303;29;20063;-51
2023/12/30 03:59:21;;;;;;;14.47;3.57;;;;;;;;;;4963148;29;20031;-56
2023/12/30 04:01:46;;;;;;;15.53;2.47;;;;;;;;;;4962832;29;20264;-56
2023/12/30 04:04:12;;;;;;;22.17;3.35;;;;;;;;;;4967972;29;20050;-54
2023/12/30 04:06:37;;;;;;;21.93;2.80;;;;;;;;;;4956872;29;20035;-54
2023/12/30 04:09:03;;;;;;;16.65;2.83;;;;;;;;;;4959279;29;20292;-52
2023/12/30 04:11:28;;;;;;;17.00;2.37;;;;;;;;;;4961030;29;20030;-55
2023/12/30 04:13:54;;;;;;;16.00;2.20;;;;;;;;;;4956867;29;20039;-51
2023/12/30 04:16:19;;;;;;;16.02;2.65;;;;;;;;;;4940055;29;20035;-54
2023/12/30 04:18:45;;;;;;;9.60;2.22;;;;;;;;;;4940312;29;20028;-55
2023/12/30 04:21:10;;;;;;;23.97;3.77;;;;;;;;;;4945186;29;20036;-55
2023/12/30 04:23:36;;;;;;;20.95;2.60;;;;;;;;;;4958763;29;20043;-56
2023/12/30 04:26:01;;;;;;;17.53;2.60;;;;;;;;;;4940229;29;20051;-53
2023/12/30 04:28:27;;;;;;;13.20;2.00;;;;;;;;;;4956662;29;20059;-52
2023/12/30 04:30:52;;;;;;;16.05;2.17;;;;;;;;;;4945227;29;20067;-56
2023/12/30 04:33:18;;;;;;;10.33;2.23;;;;;;;;;;4940149;29;20047;-55
2023/12/30 04:35:44;;;;;;;8.47;2.37;;;;;;;;;;4940080;29;20036;-55
2023/12/30 04:38:09;;;;;;;22.55;3.00;;;;;;;;;;4956726;29;20036;-51
2023/12/30 04:40:34;;;;;;;17.00;2.43;;;;;;;;;;4949828;29;20081;-56
2023/12/30 04:43:00;;;;;;;18.80;3.97;;;;;;;;;;4963503;29;20031;-52
2023/12/30 04:45:26;;;;;;;12.60;2.90;;;;;;;;;;4940089;29;20046;-55
2023/12/30 04:47:53;;;;;;;24.70;3.00;;;;;;;;;;4956774;29;20031;-51
2023/12/30 04:50:19;;;;;;;15.10;2.65;;;;;;;;;;4951998;29;20042;-53
2023/12/30 04:52:44;;;;;;;21.93;2.87;;;;;;;;;;4963151;29;20040;-55
2023/12/30 04:55:10;;;;;;;22.23;2.43;;;;;;;;;;4934158;29;20027;-54
2023/12/30 04:57:36;;;;;;;18.93;3.13;;;;;;;;;;4943635;29;20028;-56
2023/12/30 05:00:01;;;;;;;19.17;3.13;;;;;;;;;;4943114;29;20038;-56
2023/12/30 05:02:27;;;;;;;23.35;3.30;;;;;;;;;;4960123;29;20108;-53
2023/12/30 05:04:53;;;;;;;19.27;2.60;;;;;;;;;;4960149;29;20038;-53
2023/12/30 05:07:19;;;;;;;18.52;2.80;;;;;;;;;;4959902;29;20121;-52
2023/12/30 05:09:45;;;;;;;16.70;3.57;;;;;;;;;;4961996;29;20107;-55
2023/12/30 05:12:10;;;;;;;19.60;3.03;;;;;;;;;;4962284;29;20027;-54
2023/12/30 05:14:36;;;;;;;17.43;3.50;;;;;;;;;;4968942;29;20262;-54
2023/12/30 05:17:01;;;;;;;20.75;2.92;;;;;;;;;;4959892;29;20050;-54
2023/12/30 05:19:27;;;;;;;25.43;5.57;;;;;;;;;;4959783;29;20031;-56
2023/12/30 05:21:53;;;;;;;33.23;8.80;;;;;;;;;;4971154;29;20059;-55
2023/12/30 05:24:19;;;;;;;17.08;2.78;;;;;;;;;;4966416;29;20032;-56
2023/12/30 05:26:44;;;;;;;18.17;2.67;;;;;;;;;;4959547;29;20149;-54
2023/12/30 05:29:09;;;;;;;16.27;2.87;;;;;;;;;;4959619;29;20466;-54
2023/12/30 05:31:34;;;;;;;16.57;3.07;;;;;;;;;;4971717;29;20028;-52
2023/12/30 05:34:00;;;;;;;22.77;2.80;;;;;;;;;;4944860;29;20031;-57
2023/12/30 05:36:26;;;;;;;29.25;3.08;;;;;;;;;;4959388;29;20537;-54
2023/12/30 05:38:52;;;;;;;10.93;2.50;;;;;;;;;;4959505;29;20032;-53
2023/12/30 05:41:17;;;;;;;20.10;2.22;;;;;;;;;;4971353;29;20038;-53
2023/12/30 05:43:43;;;;;;;21.73;2.47;;;;;;;;;;4959437;29;20038;-53
2023/12/30 05:46:16;;;;;;;17.47;3.43;;;;;;;;;;4959297;29;20067;-53
2023/12/30 05:48:42;;;;;;;25.55;3.05;;;;;;;;;;4959307;29;20259;-49
2023/12/30 05:51:07;;;;;;;23.67;2.23;;;;;;;;;;4965183;29;20043;-52
2023/12/30 05:53:33;;;;;;;19.02;2.53;;;;;;;;;;4945582;29;20055;-51
2023/12/30 05:55:59;;;;;;;23.70;3.00;;;;;;;;;;4958981;29;20039;-55
2023/12/30 05:58:24;;;;;;;18.05;2.70;;;;;;;;;;4959048;29;20032;-54
2023/12/30 06:00:50;;;;;;;20.10;2.70;;;;;;;;;;4961520;29;20039;-49
2023/12/30 06:03:15;;;;;;;37.23;3.43;;;;;;;;;;4971286;29;20025;-57
2023/12/30 06:05:41;;;;;;;15.40;2.60;;;;;;;;;;4962874;29;20293;-57
2023/12/30 06:08:06;;;;;;;12.17;2.53;;;;;;;;;;4959153;29;20313;-54
2023/12/30 06:10:32;;;;;;;23.92;4.05;;;;;;;;;;4961298;29;20036;-56
2023/12/30 06:12:57;;;;;;;8.63;2.40;;;;;;;;;;4975260;29;20091;-53
2023/12/30 06:15:23;;;;;;;19.42;2.72;;;;;;;;;;4962507;29;20035;-53
2023/12/30 06:17:48;;;;;;;12.73;2.70;;;;;;;;;;4958898;29;20027;-55
2023/12/30 06:20:14;;;;;;;16.13;2.70;;;;;;;;;;4958812;29;20034;-51
2023/12/30 06:22:39;;;;;;;21.17;3.77;;;;;;;;;;4968275;29;20036;-58
2023/12/30 06:25:05;;;;;;;22.63;3.13;;;;;;;;;;4961764;29;20514;-52
2023/12/30 06:27:30;;;;;;;26.33;3.67;;;;;;;;;;4958541;29;20035;-55
2023/12/30 06:29:56;;;;;;;19.07;2.40;;;;;;;;;;4958437;29;20039;-53
2023/12/30 06:32:21;;;;;;;17.48;2.80;;;;;;;;;;4963835;29;20047;-52
2023/12/30 06:34:47;;;;;;;21.30;4.67;;;;;;;;;;4965052;29;20027;-56
2023/12/30 06:37:13;;;;;;;26.10;3.63;;;;;;;;;;4958444;29;20269;-55
2023/12/30 06:39:38;;;;;;;15.73;3.40;;;;;;;;;;4958168;29;20035;-54
2023/12/30 06:42:03;;;;;;;30.93;3.70;;;;;;;;;;4960571;29;20044;-56
2023/12/30 06:44:29;;;;;;;18.95;3.85;;;;;;;;;;4964382;29;20046;-55
2023/12/30 06:46:54;;;;;;;15.33;3.17;;;;;;;;;;4958343;29;20043;-55
2023/12/30 06:49:20;;;;;;;32.10;4.03;;;;;;;;;;4957939;29;20297;-49
2023/12/30 06:51:46;;;;;;;17.30;3.87;;;;;;;;;;4957746;29;20064;-55
2023/12/30 06:54:11;;;;;;;23.30;5.30;;;;;;;;;;4961844;29;20305;-52
2023/12/30 06:56:37;;;;;;;19.43;4.57;;;;;;;;;;4958151;29;20031;-55
2023/12/30 06:59:02;;;;;;;23.93;4.23;;;;;;;;;;4957679;29;20262;-54
2023/12/30 07:01:28;;;;;;;28.33;6.93;;;;;;;;;;4962652;29;20039;-55
2023/12/30 07:03:53;;;;;;;22.87;4.37;;;;;;;;;;4961322;29;20268;-54
2023/12/30 07:06:19;;;;;;;17.67;5.37;;;;;;;;;;4957876;29;20087;-54
2023/12/30 07:08:45;;;;;;;20.23;4.43;;;;;;;;;;4957731;29;20282;-55
2023/12/30 07:11:10;;;;;;;20.38;4.18;;;;;;;;;;4957703;29;20297;-56
2023/12/30 07:13:35;;;;;;;24.67;5.00;;;;;;;;;;4965178;29;20039;-51
2023/12/30 07:16:01;;;;;;;30.67;6.33;;;;;;;;;;4957880;29;20027;-53
2023/12/30 07:18:26;;;;;;;26.10;3.87;;;;;;;;;;4957425;29;20043;-53
2023/12/30 07:20:52;;;;;;;21.67;6.30;;;;;;;;;;4957613;29;20282;-55
2023/12/30 07:23:17;;;;;;;20.48;5.75;;;;;;;;;;4961485;29;20099;-53
2023/12/30 07:25:43;;;;;;;24.17;5.70;;;;;;;;;;4964793;29;20043;-56
2023/12/30 07:28:09;;;;;;;23.88;4.53;;;;;;;;;;4957413;29;20043;-54
2023/12/30 07:30:35;;;;;;;28.20;4.55;;;;;;;;;;4957182;29;20043;-54
2023/12/30 07:33:00;;;;;;;27.33;5.20;;;;;;;;;;4962829;29;20028;-56
2023/12/30 07:35:27;;;;;;;17.27;5.28;;;;;;;;;;4963984;29;20036;-52
2023/12/30 07:37:52;;;;;;;20.75;4.70;;;;;;;;;;4957311;29;20032;-54
2023/12/30 07:40:19;;;;;;;21.23;5.47;;;;;;;;;;4957311;29;20039;-51
2023/12/30 07:42:44;;;;;;;22.50;5.57;;;;;;;;;;4956862;29;20035;-50
2023/12/30 07:45:10;;;;;;;17.87;5.13;;;;;;;;;;4966636;29;20042;-53
2023/12/30 07:47:36;;;;;;;37.08;6.03;;;;;;;;;;4958922;29;20027;-56
2023/12/30 07:50:02;;;;;;;25.57;7.87;;;;;;;;;;4940538;29;20048;-56
2023/12/30 07:52:27;;;;;;;28.38;5.00;;;;;;;;;;4962313;29;20032;-56
2023/12/30 07:54:52;;;;;;;21.47;5.00;;;;;;;;;;4971045;29;20098;-54
2023/12/30 07:57:19;;;;;;;24.05;5.60;;;;;;;;;;4957173;29;20055;-54
2023/12/30 07:59:44;;;;;;;22.55;6.47;;;;;;;;;;4957143;29;20040;-55
2023/12/30 08:02:10;;;;;;;21.90;5.40;;;;;;;;;;4957903;29;20052;-55
2023/12/30 08:04:35;;;;;;;32.37;5.60;;;;;;;;;;4971488;29;20038;-55
2023/12/30 08:07:00;;;;;;;27.87;6.33;;;;;;;;;;4957866;29;20298;-55
2023/12/30 08:09:26;;;;;;;23.45;5.85;;;;;;;;;;4956990;29;20046;-57
2023/12/30 08:11:52;;;;;;;25.53;5.37;;;;;;;;;;4957592;29;20038;-55
2023/12/30 08:14:17;;;;;;;16.53;4.87;;;;;;;;;;4969829;29;20269;-54
2023/12/30 08:16:43;;;;;;;18.80;4.90;;;;;;;;;;4969287;29;20132;-55
2023/12/30 08:19:09;;;;;;;19.53;5.83;;;;;;;;;;4956683;29;20283;-53
2023/12/30 08:21:34;;;;;;;26.30;6.10;;;;;;;;;;4939717;29;20031;-57
2023/12/30 08:24:01;;;;;;;26.07;5.43;;;;;;;;;;4965583;29;20272;-56
2023/12/30 08:26:27;;;;;;;20.90;5.53;;;;;;;;;;4977833;29;20156;-49
2023/12/30 08:28:54;;;;;;;23.90;5.18;;;;;;;;;;4965775;29;20031;-56
2023/12/30 08:31:20;;;;;;;25.35;6.45;;;;;;;;;;4960537;29;20036;-52
2023/12/30 08:33:46;;;;;;;28.38;6.60;;;;;;;;;;4967393;29;20039;-52
2023/12/30 08:36:12;;;;;;;22.98;4.75;;;;;;;;;;4961982;29;20027;-53
2023/12/30 08:38:37;;;;;;;17.97;4.20;;;;;;;;;;4960519;29;20055;-52
2023/12/30 08:41:03;;;;;;;36.73;7.27;;;;;;;;;;4960308;29;20346;-53
2023/12/30 08:43:29;;;;;;;22.10;5.57;;;;;;;;;;4956888;29;20027;-55
2023/12/30 08:45:55;;;;;;;18.95;4.30;;;;;;;;;;4961717;29;20278;-51
2023/12/30 08:48:20;;;;;;;21.13;4.90;;;;;;;;;;4960271;29;20050;-51
2023/12/30 08:50:46;;;;;;;21.40;4.10;;;;;;;;;;4960061;29;20067;-53
2023/12/30 08:53:11;;;;;;;31.37;4.73;;;;;;;;;;4961214;29;20058;-57
2023/12/30 08:55:37;;;;;;;20.58;3.97;;;;;;;;;;4966827;29;20027;-54
2023/12/30 08:58:02;;;;;;;22.30;4.07;;;;;;;;;;4960371;29;20044;-53
2023/12/30 09:00:28;;;;;;;29.43;5.80;;;;;;;;;;4959365;29;20036;-53
2023/12/30 09:02:55;;;;;;;34.17;4.82;;;;;;;;;;4964032;29;20059;-56
2023/12/30 09:05:20;;;;;;;24.98;5.35;;;;;;;;;;4966772;29;20036;-55
2023/12/30 09:07:48;;;;;;;14.85;3.63;;;;;;;;;;4959823;29;20032;-54
2023/12/30 09:10:15;;;;;;;18.33;4.85;;;;;;;;;;4959635;29;20087;-51
2023/12/30 09:12:40;;;;;;;22.92;4.82;;;;;;;;;;4961471;29;20027;-53
2023/12/30 09:15:06;;;;;;;27.67;4.50;;;;;;;;;;4969559;29;20039;-50
2023/12/30 09:17:31;;;;;;;25.08;4.35;;;;;;;;;;4959825;29;20028;-54
2023/12/30 09:19:57;;;;;;;33.50;6.70;;;;;;;;;;4959730;29;20067;-55
2023/12/30 09:22:22;;;;;;;27.60;4.67;;;;;;;;;;4959643;29;20289;-57
2023/12/30 09:24:48;;;;;;;28.13;3.78;;;;;;;;;;4965391;29;20046;-53
2023/12/30 09:27:14;;;;;;;21.52;3.42;;;;;;;;;;4970765;29;20044;-57
2023/12/30 09:29:40;;;;;;;15.03;3.97;;;;;;;;;;4959207;29;20032;-54
2023/12/30 09:32:05;;;;;;;29.73;4.97;;;;;;;;;;4959634;29;20334;-52
2023/12/30 09:34:31;;;;;;;27.17;4.33;;;;;;;;;;4958192;29;20031;-52
2023/12/30 09:36:56;;;;;;;12.20;3.43;;;;;;;;;;4963139;29;20273;-53
2023/12/30 09:39:22;;;;;;;26.87;4.53;;;;;;;;;;4959309;29;20297;-56
2023/12/30 09:41:47;;;;;;;29.08;4.22;;;;;;;;;;4959244;29;20028;-54
2023/12/30 09:44:13;;;;;;;21.23;3.70;;;;;;;;;;4969897;29;20099;-55
2023/12/30 09:46:40;;;;;;;23.95;3.53;;;;;;;;;;4966427;29;20262;-55
2023/12/30 09:49:06;;;;;;;29.08;4.32;;;;;;;;;;4942815;29;20132;-55
2023/12/30 09:51:33;;;;;;;13.57;3.30;;;;;;;;;;4959081;29;20031;-56
2023/12/30 09:53:58;;;;;;;15.38;3.15;;;;;;;;;;4965515;29;20276;-57
2023/12/30 09:56:24;;;;;;;23.33;4.75;;;;;;;;;;4949538;29;20036;-56
2023/12/30 09:58:50;;;;;;;20.67;3.80;;;;;;;;;;4958604;29;20027;-57
2023/12/30 10:01:17;;;;;;;18.60;3.33;;;;;;;;;;4958902;29;20107;-55
2023/12/30 10:03:43;;;;;;;11.80;3.00;;;;;;;;;;4962082;29;20031;-56
2023/12/30 10:06:11;;;;;;;16.67;3.25;;;;;;;;;;4960882;29;20035;-53
2023/12/30 10:08:37;;;;;;;22.53;3.70;;;;;;;;;;4962708;29;20035;-56
2023/12/30 10:11:07;;;;;;;17.88;3.45;;;;;;;;;;4942278;29;20309;-54
2023/12/30 10:13:35;;;;;;;15.67;3.07;;;;;;;;;;4959516;29;20095;-55
2023/12/30 10:16:02;;;;;;;20.67;3.63;;;;;;;;;;4958495;29;20321;-56
2023/12/30 10:18:28;;;;;;;17.03;4.20;;;;;;;;;;4962133;29;20319;-56
2023/12/30 10:20:53;;;;;;;20.00;3.10;;;;;;;;;;4958377;29;20262;-54
2023/12/30 10:23:19;;;;;;;13.07;2.88;;;;;;;;;;4958220;29;20035;-54
2023/12/30 10:25:45;;;;;;;26.43;5.53;;;;;;;;;;4973429;29;20094;-57
2023/12/30 10:28:11;;;;;;;24.95;3.28;;;;;;;;;;4959544;29;20276;-55
2023/12/30 10:30:36;;;;;;;22.93;3.43;;;;;;;;;;4958357;29;20040;-53
2023/12/30 10:33:08;;;;;;;13.70;3.43;;;;;;;;;;4958296;29;20274;-55
2023/12/30 10:35:34;;;;;;;24.63;4.87;;;;;;;;;;4967602;29;20261;-58
2023/12/30 10:38:03;;;;;;;20.97;4.07;;;;;;;;;;4972978;29;20348;-55
2023/12/30 10:40:29;;;;;;;15.23;3.20;;;;;;;;;;4958187;29;20038;-55
2023/12/30 10:42:55;;;;;;;21.90;4.70;;;;;;;;;;4958100;29;20274;-55
2023/12/30 10:45:21;;;;;;;20.75;4.40;;;;;;;;;;4962833;29;20080;-54
2023/12/30 10:47:48;;;;;;;31.47;3.93;;;;;;;;;;4966117;29;20035;-56
2023/12/30 10:50:13;;;;;;;19.30;5.40;;;;;;;;;;4941624;29;20285;-51
2023/12/30 10:52:44;;;;;;;19.93;4.37;;;;;;;;;;4957625;29;20278;-58
2023/12/30 10:55:10;;;;;;;28.50;4.53;;;;;;;;;;4959716;29;20262;-53
2023/12/30 10:57:37;;;;;;;32.70;4.43;;;;;;;;;;4958084;29;20254;-53
2023/12/30 11:00:09;;;;;;;24.33;4.83;;;;;;;;;;4957864;29;20057;-54
2023/12/30 11:02:36;;;;;;;32.13;4.40;;;;;;;;;;4957751;29;20249;-56
2023/12/30 11:05:03;;;;;;;34.33;5.07;;;;;;;;;;4959706;29;20298;-55
2023/12/30 11:07:29;;;;;;;26.17;5.90;;;;;;;;;;4963523;29;20026;-53
2023/12/30 11:09:56;;;;;;;25.17;5.53;;;;;;;;;;4958729;29;20317;-54
2023/12/30 11:12:21;;;;;;;19.33;5.67;;;;;;;;;;4968858;29;20280;-56
2023/12/30 11:14:48;;;;;;;26.83;4.90;;;;;;;;;;4962860;29;20257;-54
2023/12/30 11:17:32;;;;;;;27.92;5.90;;;;;;;;;;4966346;29;20045;-53
2023/12/30 11:20:17;;;;;;;23.53;6.43;;;;;;;;;;4952011;29;20060;-56
2023/12/30 11:22:42;;;;;;;37.90;8.07;;;;;;;;;;4957206;29;20270;-55
2023/12/30 11:25:08;;;;;;;25.33;7.85;;;;;;;;;;4961630;29;20277;-55
2023/12/30 11:27:33;;;;;;;23.77;6.13;;;;;;;;;;4960664;29;20094;-54
2023/12/30 11:29:59;;;;;;;36.40;9.97;;;;;;;;;;4961357;29;20042;-54
2023/12/30 11:32:24;;;;;;;29.30;8.30;;;;;;;;;;4957225;29;20034;-55
2023/12/30 11:34:50;;;;;;;30.90;7.17;;;;;;;;;;4958926;29;20050;-54
2023/12/30 11:37:16;;;;;;;40.13;10.43;;;;;;;;;;4959871;29;20038;-53
2023/12/30 11:39:43;;;;;;;34.30;7.47;;;;;;;;;;4959645;29;20031;-51
2023/12/30 11:42:08;;;;;;;26.73;8.27;;;;;;;;;;4957108;29;20107;-50
2023/12/30 11:44:35;;;;;;;32.13;8.48;;;;;;;;;;4960882;29;20262;-55
2023/12/30 11:47:00;;;;;;;30.57;8.17;;;;;;;;;;4962992;29;20058;-57
2023/12/30 11:49:26;;;;;;;25.65;8.10;;;;;;;;;;4956349;29;20040;-56
2023/12/30 11:52:02;;;;;;;31.35;8.98;;;;;;;;;;4956597;29;20023;-56
2023/12/30 11:54:27;;;;;;;28.13;8.43;;;;;;;;;;4939964;29;20059;-55
2023/12/30 11:56:53;;;;;;;29.52;9.25;;;;;;;;;;4962372;29;20281;-56
2023/12/30 11:59:18;;;;;;;29.90;9.33;;;;;;;;;;4967939;29;20091;-50
2023/12/30 12:01:45;;;;;;;22.47;8.87;;;;;;;;;;4966462;29;20467;-52
2023/12/30 12:04:11;;;;;;;28.40;9.70;;;;;;;;;;4959383;29;20027;-56
2023/12/30 12:06:37;;;;;;;22.47;8.80;;;;;;;;;;4961693;29;20274;-54
2023/12/30 12:09:04;;;;;;;28.58;9.07;;;;;;;;;;4960108;28;20270;-54
2023/12/30 12:11:30;;;;;;;32.77;11.33;;;;;;;;;;4956649;29;20035;-56
2023/12/30 12:13:56;;;;;;;32.27;11.30;;;;;;;;;;4956617;29;20282;-54
2023/12/30 12:16:22;;;;;;;34.90;10.90;;;;;;;;;;4960878;29;20038;-54
2023/12/30 12:18:48;;;;;;;31.30;9.43;;;;;;;;;;4962023;29;20285;-52
2023/12/30 12:21:14;;;;;;;27.80;10.13;;;;;;;;;;4956751;29;20071;-54
2023/12/30 12:23:42;;;;;;;37.00;10.37;;;;;;;;;;4956141;29;20046;-53
2023/12/30 12:26:07;;;;;;;18.03;8.30;;;;;;;;;;4958358;29;20266;-54
2023/12/30 12:28:33;;;;;;;46.60;10.13;;;;;;;;;;4963582;29;20281;-55
2023/12/30 12:31:01;;;;;;;27.92;7.65;;;;;;;;;;4956500;29;20293;-56
2023/12/30 12:33:26;;;;;;;19.70;6.87;;;;;;;;;;4956620;29;20032;-55
2023/12/30 12:35:52;;;;;;;27.07;7.17;;;;;;;;;;4963755;29;20296;-53
2023/12/30 12:38:18;;;;;;;24.53;6.93;;;;;;;;;;4966598;29;20277;-53
2023/12/30 12:40:45;;;;;;;24.95;6.95;;;;;;;;;;4954534;29;20036;-54
2023/12/30 12:43:10;;;;;;;28.60;5.70;;;;;;;;;;4954966;29;20096;-52
2023/12/30 12:45:36;;;;;;;22.00;5.13;;;;;;;;;;4960928;29;20269;-56
2023/12/30 12:48:02;;;;;;;31.10;5.53;;;;;;;;;;4970589;29;20285;-53
2023/12/30 12:50:27;;;;;;;20.50;6.87;;;;;;;;;;4959259;29;20294;-54
2023/12/30 12:52:53;;;;;;;18.33;5.90;;;;;;;;;;4955896;29;20024;-56
2023/12/30 12:55:18;;;;;;;15.98;4.88;;;;;;;;;;4956533;29;20032;-54
2023/12/30 12:57:44;;;;;;;25.70;6.20;;;;;;;;;;4961197;29;20027;-56
2023/12/30 13:00:10;;;;;;;20.50;5.47;;;;;;;;;;4957388;29;20285;-54
2023/12/30 13:02:36;;;;;;;27.42;7.00;;;;;;;;;;4956089;29;20266;-53
2023/12/30 13:05:04;;;;;;;20.67;6.07;;;;;;;;;;4964929;29;20075;-53
2023/12/30 13:07:29;;;;;;;19.33;4.77;;;;;;;;;;4956949;29;20281;-56
2023/12/30 13:09:58;;;;;;;22.80;4.95;;;;;;;;;;4965734;28;20286;-55
2023/12/30 13:12:24;;;;;;;29.10;5.40;;;;;;;;;;4959187;29;20035;-56
2023/12/30 13:14:51;;;;;;;19.35;4.95;;;;;;;;;;4959054;29;20345;-56
2023/12/30 13:17:18;;;;;;;27.70;4.60;;;;;;;;;;4970237;29;20062;-57
2023/12/30 13:19:44;;;;;;;18.50;4.15;;;;;;;;;;4962122;29;20031;-56
2023/12/30 13:22:09;;;;;;;25.38;4.75;;;;;;;;;;4958781;29;20040;-56
2023/12/30 13:24:37;;;;;;;14.48;3.60;;;;;;;;;;4959150;29;20043;-55
2023/12/30 13:27:05;;;;;;;15.67;4.10;;;;;;;;;;4965231;29;20050;-54
2023/12/30 13:29:31;;;;;;;20.97;4.13;;;;;;;;;;4967314;29;20083;-55
2023/12/30 13:31:57;;;;;;;22.05;4.47;;;;;;;;;;4959297;29;20056;-53
2023/12/30 13:34:23;;;;;;;16.65;4.03;;;;;;;;;;4959195;29;20023;-53
2023/12/30 13:36:53;;;;;;;13.82;3.58;;;;;;;;;;4966787;29;20034;-56
2023/12/30 13:39:19;;;;;;;10.73;3.10;;;;;;;;;;4964721;29;20039;-56
2023/12/30 13:41:44;;;;;;;18.98;3.40;;;;;;;;;;4967734;29;20035;-53
2023/12/30 13:44:12;;;;;;;24.77;5.77;;;;;;;;;;4958832;29;20060;-54
2023/12/30 13:51:55;;;;;;;23.30;5.27;;;;;;;;;;4949129;29;20131;-54
2023/12/30 13:54:22;;;;;;;17.05;4.60;;;;;;;;;;4970178;29;20040;-54
2023/12/30 13:56:54;;;;;;;14.03;3.97;;;;;;;;;;4971106;29;20031;-56
2023/12/30 13:59:20;;;;;;;18.90;3.97;;;;;;;;;;4964245;29;20099;-54
2023/12/30 14:01:45;;;;;;;14.17;3.00;;;;;;;;;;4958642;29;20059;-57
2023/12/30 14:04:12;;;;;;;15.90;4.00;;;;;;;;;;4958918;29;20051;-56
2023/12/30 14:06:39;;;;;;;17.63;4.20;;;;;;;;;;4961585;29;20032;-56
2023/12/30 14:09:31;;;;;;;26.43;4.07;;;;;;;;;;4974129;29;20309;-58
2023/12/30 14:12:01;;;;;;;13.27;3.97;;;;;;;;;;4958473;29;20266;-56
2023/12/30 14:14:27;;;;;;;17.70;3.60;;;;;;;;;;4958243;29;20369;-52
2023/12/30 14:16:52;;;;;;;13.82;3.53;;;;;;;;;;4959948;29;20376;-54
2023/12/30 14:19:18;;;;;;;9.63;3.50;;;;;;;;;;4964466;29;20035;-52
2023/12/30 14:21:43;;;;;;;20.40;4.13;;;;;;;;;;4967892;29;20028;-50
2023/12/30 14:24:11;;;;;;;26.77;5.63;;;;;;;;;;4958439;29;20039;-53
2023/12/30 14:26:37;;;;;;;15.67;3.63;;;;;;;;;;4961118;29;20035;-55
2023/12/30 14:29:03;;;;;;;25.05;4.47;;;;;;;;;;4967558;29;20284;-57